createdAt,value
2015-03-15T20:41:01.216Z,100919
2015-03-15T20:41:19.779Z,100922
2015-03-15T20:41:38.499Z,100925
2015-03-15T20:41:57.187Z,100919
2015-03-15T20:42:15.874Z,100933
2015-03-15T20:42:34.579Z,100925
2015-03-15T20:42:53.267Z,100916
2015-03-15T20:43:11.954Z,100919
2015-03-15T20:43:30.629Z,100928
2015-03-15T20:43:49.348Z,100922
2015-03-15T20:44:08.020Z,100913
2015-03-15T20:44:26.723Z,100922
2015-03-15T20:44:45.413Z,100913
2015-03-15T20:45:04.116Z,100916
2015-03-15T20:45:22.803Z,100919
2015-03-15T20:45:41.493Z,100928
2015-03-15T20:46:00.180Z,100922
2015-03-15T20:46:18.852Z,100922
2015-03-15T20:46:37.558Z,100919
2015-03-15T20:46:56.261Z,100925
2015-03-15T20:47:14.949Z,100919
2015-03-15T20:47:33.638Z,100925
2015-03-15T20:47:52.341Z,100928
2015-03-15T20:48:11.029Z,100922
2015-03-15T20:48:29.732Z,100922
2015-03-15T20:48:48.390Z,100919
2015-03-15T20:49:07.109Z,100919
2015-03-15T20:49:25.781Z,100925
2015-03-15T20:49:44.486Z,100927
2015-03-15T20:50:03.174Z,100925
2015-03-15T20:50:21.877Z,100919
2015-03-15T20:50:40.567Z,100922
2015-03-15T20:50:59.270Z,100930
2015-03-15T20:51:17.958Z,100927
2015-03-15T20:51:36.647Z,100927
2015-03-15T20:51:55.335Z,100922
2015-03-15T20:52:14.022Z,100930
2015-03-15T20:52:32.725Z,100930
2015-03-15T20:52:51.432Z,100927
2015-03-15T20:53:10.119Z,100919
2015-03-15T20:53:28.838Z,100922
2015-03-15T20:53:47.527Z,100919
2015-03-15T20:54:06.215Z,100916
2015-03-15T20:54:24.887Z,100919
2015-03-15T20:54:43.592Z,100910
2015-03-15T20:55:02.279Z,100919
2015-03-15T20:55:20.967Z,100919
2015-03-15T20:55:39.656Z,100913
2015-03-15T20:55:58.328Z,100919
2015-03-15T20:56:17.047Z,100916
2015-03-15T20:56:35.722Z,100913
2015-03-15T20:56:54.425Z,100919
2015-03-15T20:57:13.097Z,100922
2015-03-15T20:57:31.831Z,100922
2015-03-15T20:57:50.521Z,100910
2015-03-15T20:58:09.193Z,100924
2015-03-15T20:58:27.864Z,100930
2015-03-15T20:58:46.571Z,100904
2015-03-15T20:59:05.227Z,100902
2015-03-15T20:59:23.946Z,100916
2015-03-15T20:59:42.635Z,100919
2015-03-15T21:00:01.323Z,100921
2015-03-15T21:00:20.010Z,100930
2015-03-15T21:00:38.684Z,100924
2015-03-15T21:00:57.387Z,100924
2015-03-15T21:01:16.090Z,100921
2015-03-15T21:01:34.796Z,100907
2015-03-15T21:01:53.484Z,100919
2015-03-15T21:02:12.156Z,100913
2015-03-15T21:02:30.859Z,100916
2015-03-15T21:02:49.547Z,100921
2015-03-15T21:03:08.250Z,100910
2015-03-15T21:03:26.922Z,100913
2015-03-15T21:03:45.628Z,100916
2015-03-15T21:04:04.332Z,100910
2015-03-15T21:04:23.035Z,100916
2015-03-15T21:04:41.710Z,100901
2015-03-15T21:05:00.397Z,100916
2015-03-15T21:05:19.116Z,100919
2015-03-15T21:05:37.805Z,100919
2015-03-15T21:05:56.493Z,100921
2015-03-15T21:06:15.180Z,100924
2015-03-15T21:06:33.868Z,100918
2015-03-15T21:06:52.557Z,100921
2015-03-15T21:07:14.276Z,100916
2015-03-15T21:07:32.964Z,100924
2015-03-15T21:07:51.653Z,100916
2015-03-15T21:08:10.356Z,100916
2015-03-15T21:08:29.059Z,100913
2015-03-15T21:08:47.750Z,100916
2015-03-15T21:09:06.437Z,100910
2015-03-15T21:09:25.109Z,100907
2015-03-15T21:09:43.814Z,100913
2015-03-15T21:10:02.533Z,100918
2015-03-15T21:10:21.221Z,100910
2015-03-15T21:10:39.926Z,100916
2015-03-15T21:10:58.613Z,100918
2015-03-15T21:11:17.301Z,100910
2015-03-15T21:11:35.988Z,100910
2015-03-15T21:11:54.678Z,100910
2015-03-15T21:12:13.381Z,100913
2015-03-15T21:12:32.084Z,100916
2015-03-15T21:12:50.774Z,100907
2015-03-15T21:13:09.462Z,100910
2015-03-15T21:13:28.165Z,100910
2015-03-15T21:13:46.855Z,100901
2015-03-15T21:14:05.542Z,100904
2015-03-15T21:14:30.230Z,100896
2015-03-15T21:14:48.919Z,100901
2015-03-15T21:15:07.591Z,100904
2015-03-15T21:15:26.294Z,100907
2015-03-15T21:16:06.655Z,100907
2015-03-15T21:16:25.359Z,100902
2015-03-15T21:16:44.066Z,100896
2015-03-15T21:17:02.753Z,100910
2015-03-15T21:17:21.456Z,100913
2015-03-15T21:17:40.161Z,100902
2015-03-15T21:17:58.849Z,100907
2015-03-15T21:18:17.552Z,100896
2015-03-15T21:18:36.240Z,100890
2015-03-15T21:18:54.944Z,100905
2015-03-15T21:19:13.631Z,100899
2015-03-15T21:19:32.334Z,100896
2015-03-15T21:19:51.056Z,100905
2015-03-15T21:20:09.744Z,100902
2015-03-15T21:20:28.431Z,100905
2015-03-15T21:20:47.122Z,100896
2015-03-15T21:21:05.809Z,100896
2015-03-15T21:21:24.543Z,100896
2015-03-15T21:21:43.217Z,100899
2015-03-15T21:22:01.905Z,100896
2015-03-15T21:22:20.624Z,100899
2015-03-15T21:22:39.311Z,100902
2015-03-15T21:22:58.016Z,100905
2015-03-15T21:23:16.719Z,100899
2015-03-15T21:23:35.407Z,100896
2015-03-15T21:23:54.129Z,100896
2015-03-15T21:24:12.816Z,100905
2015-03-15T21:24:31.488Z,100896
2015-03-15T21:24:50.193Z,100893
2015-03-15T21:25:08.896Z,100907
2015-03-15T21:25:27.568Z,100902
2015-03-15T21:25:46.258Z,100902
2015-03-15T21:26:04.945Z,100896
2015-03-15T21:26:23.648Z,100907
2015-03-15T21:26:42.338Z,100893
2015-03-15T21:27:01.010Z,100893
2015-03-15T21:27:19.728Z,100899
2015-03-15T21:27:38.400Z,100885
2015-03-15T21:27:57.105Z,100896
2015-03-15T21:28:15.793Z,100896
2015-03-15T21:28:34.496Z,100885
2015-03-15T21:28:56.171Z,100896
2015-03-15T21:29:14.858Z,100896
2015-03-15T21:29:33.546Z,100893
2015-03-15T21:29:52.268Z,100902
2015-03-15T21:30:10.971Z,100896
2015-03-15T21:30:29.658Z,100887
2015-03-15T21:30:48.348Z,100904
2015-03-15T21:31:07.035Z,100887
2015-03-15T21:31:25.707Z,100896
2015-03-15T21:31:44.410Z,100887
2015-03-15T21:32:03.115Z,100899
2015-03-15T21:32:21.787Z,100896
2015-03-15T21:32:40.490Z,100882
2015-03-15T21:32:59.180Z,100899
2015-03-15T21:33:17.867Z,100896
2015-03-15T21:33:36.570Z,100899
2015-03-15T21:33:55.245Z,100899
2015-03-15T21:34:13.948Z,100899
2015-03-15T21:34:32.652Z,100904
2015-03-15T21:34:51.341Z,100884
2015-03-15T21:35:10.044Z,100884
2015-03-15T21:35:28.732Z,100890
2015-03-15T21:35:47.437Z,100882
2015-03-15T21:36:06.124Z,100884
2015-03-15T21:36:24.827Z,100896
2015-03-15T21:36:43.515Z,100902
2015-03-15T21:37:02.190Z,100887
2015-03-15T21:37:20.877Z,100899
2015-03-15T21:37:39.580Z,100890
2015-03-15T21:37:58.270Z,100887
2015-03-15T21:38:16.973Z,100884
2015-03-15T21:38:35.676Z,100884
2015-03-15T21:38:54.367Z,100884
2015-03-15T21:39:35.835Z,100890
2015-03-15T21:39:54.541Z,100884
2015-03-15T21:40:13.197Z,100896
2015-03-15T21:40:31.900Z,100896
2015-03-15T21:40:50.574Z,100890
2015-03-15T21:41:09.261Z,100890
2015-03-15T21:41:27.949Z,100896
2015-03-15T21:41:46.652Z,100890
2015-03-15T21:42:05.326Z,100882
2015-03-15T21:42:24.029Z,100896
2015-03-15T21:42:42.716Z,100890
2015-03-15T21:43:01.423Z,100899
2015-03-15T21:43:20.094Z,100896
2015-03-15T21:43:38.813Z,100896
2015-03-15T21:43:57.487Z,100902
2015-03-15T21:44:16.190Z,100908
2015-03-15T21:44:34.878Z,100888
2015-03-15T21:44:53.567Z,100885
2015-03-15T21:45:12.255Z,100893
2015-03-15T21:45:30.942Z,100885
2015-03-15T21:45:49.632Z,100896
2015-03-15T21:46:08.335Z,100899
2015-03-15T21:46:27.038Z,100897
2015-03-15T21:46:45.710Z,100891
2015-03-15T21:47:04.416Z,100891
2015-03-15T21:47:23.119Z,100897
2015-03-15T21:47:41.807Z,100897
2015-03-15T21:48:00.496Z,100902
2015-03-15T21:48:19.199Z,100902
2015-03-15T21:48:37.871Z,100908
2015-03-15T21:48:56.561Z,100905
2015-03-15T21:49:15.248Z,100905
2015-03-15T21:49:33.951Z,100894
2015-03-15T21:49:52.657Z,100897
2015-03-15T21:50:11.345Z,100902
2015-03-15T21:50:30.017Z,100897
2015-03-15T21:50:48.704Z,100897
2015-03-15T21:51:07.409Z,100891
2015-03-15T21:51:26.112Z,100894
2015-03-15T21:51:44.800Z,100906
2015-03-15T21:52:03.489Z,100903
2015-03-15T21:52:22.161Z,100903
2015-03-15T21:52:40.849Z,100897
2015-03-15T21:52:59.555Z,100894
2015-03-15T21:53:18.258Z,100894
2015-03-15T21:53:36.961Z,100897
2015-03-15T21:53:55.651Z,100891
2015-03-15T21:54:14.338Z,100897
2015-03-15T21:54:33.041Z,100891
2015-03-15T21:54:51.731Z,100889
2015-03-15T21:55:10.403Z,100891
2015-03-15T21:55:29.090Z,100880
2015-03-15T21:55:47.793Z,100889
2015-03-15T21:56:06.484Z,100889
2015-03-15T21:56:25.156Z,100891
2015-03-15T21:56:43.859Z,100880
2015-03-15T21:57:02.564Z,100880
2015-03-15T21:57:21.251Z,100891
2015-03-15T21:57:39.955Z,100888
2015-03-15T21:57:58.644Z,100888
2015-03-15T21:58:17.347Z,100894
2015-03-15T21:58:36.035Z,100886
2015-03-15T21:58:54.741Z,100891
2015-03-15T21:59:13.444Z,100886
2015-03-15T21:59:32.131Z,100889
2015-03-15T21:59:50.819Z,100894
2015-03-15T22:00:09.508Z,100891
2015-03-15T22:00:28.196Z,100886
2015-03-15T22:00:46.868Z,100883
2015-03-15T22:01:05.573Z,100874
2015-03-15T22:01:24.276Z,100883
2015-03-15T22:01:42.964Z,100883
2015-03-15T22:02:01.653Z,100874
2015-03-15T22:02:20.341Z,100889
2015-03-15T22:02:39.012Z,100892
2015-03-15T22:02:57.719Z,100880
2015-03-15T22:03:16.390Z,100880
2015-03-15T22:03:35.062Z,100889
2015-03-15T22:03:53.783Z,100892
2015-03-15T22:04:12.471Z,100889
2015-03-15T22:04:31.174Z,100883
2015-03-15T22:04:49.861Z,100889
2015-03-15T22:05:08.552Z,100889
2015-03-15T22:05:27.224Z,100884
2015-03-15T22:05:45.927Z,100881
2015-03-15T22:06:04.616Z,100875
2015-03-15T22:06:23.288Z,100881
2015-03-15T22:06:41.976Z,100895
2015-03-15T22:07:00.681Z,100892
2015-03-15T22:07:19.415Z,100887
2015-03-15T22:07:38.103Z,100887
2015-03-15T22:07:56.792Z,100887
2015-03-15T22:08:15.448Z,100890
2015-03-15T22:08:34.136Z,100898
2015-03-15T22:08:52.839Z,100898
2015-03-15T22:09:11.529Z,100890
2015-03-15T22:09:30.217Z,100884
2015-03-15T22:09:48.920Z,100890
2015-03-15T22:10:07.593Z,100881
2015-03-15T22:10:26.312Z,100893
2015-03-15T22:10:44.999Z,100890
2015-03-15T22:11:03.705Z,100881
2015-03-15T22:11:22.393Z,100893
2015-03-15T22:11:41.080Z,100884
2015-03-15T22:11:59.786Z,100890
2015-03-15T22:12:18.490Z,100881
2015-03-15T22:12:37.161Z,100879
2015-03-15T22:12:55.851Z,100887
2015-03-15T22:13:14.585Z,100896
2015-03-15T22:13:33.273Z,100890
2015-03-15T22:13:51.960Z,100881
2015-03-15T22:14:10.665Z,100887
2015-03-15T22:14:29.337Z,100881
2015-03-15T22:14:48.056Z,100890
2015-03-15T22:15:06.731Z,100884
2015-03-15T22:15:25.403Z,100884
2015-03-15T22:15:44.122Z,100887
2015-03-15T22:16:02.811Z,100887
2015-03-15T22:16:21.499Z,100887
2015-03-15T22:16:40.170Z,100884
2015-03-15T22:16:58.876Z,100890
2015-03-15T22:17:17.579Z,100893
2015-03-15T22:17:36.251Z,100884
2015-03-15T22:17:54.938Z,100881
2015-03-15T22:18:13.629Z,100890
2015-03-15T22:18:32.316Z,100887
2015-03-15T22:18:51.004Z,100884
2015-03-15T22:19:09.677Z,100890
2015-03-15T22:19:28.381Z,100887
2015-03-15T22:19:47.068Z,100887
2015-03-15T22:20:05.742Z,100879
2015-03-15T22:20:24.445Z,100882
2015-03-15T22:20:43.133Z,100881
2015-03-15T22:21:01.854Z,100893
2015-03-15T22:21:20.526Z,100881
2015-03-15T22:21:39.214Z,100887
2015-03-15T22:21:57.903Z,100893
2015-03-15T22:22:16.606Z,100890
2015-03-15T22:22:35.278Z,100901
2015-03-15T22:22:53.966Z,100878
2015-03-15T22:23:12.671Z,100876
2015-03-15T22:23:31.390Z,100884
2015-03-15T22:23:50.061Z,100890
2015-03-15T22:24:08.767Z,100887
2015-03-15T22:24:27.438Z,100875
2015-03-15T22:24:46.110Z,100887
2015-03-15T22:25:04.815Z,100884
2015-03-15T22:25:23.487Z,100887
2015-03-15T22:25:42.206Z,100890
2015-03-15T22:26:00.881Z,100895
2015-03-15T22:26:19.568Z,100884
2015-03-15T22:26:38.287Z,100881
2015-03-15T22:26:56.961Z,100878
2015-03-15T22:27:15.649Z,100869
2015-03-15T22:27:34.352Z,100886
2015-03-15T22:27:53.039Z,100881
2015-03-15T22:28:11.713Z,100884
2015-03-15T22:28:30.401Z,100886
2015-03-15T22:28:49.088Z,100881
2015-03-15T22:29:07.763Z,100895
2015-03-15T22:29:26.435Z,100886
2015-03-15T22:29:45.122Z,100892
2015-03-15T22:30:03.828Z,100892
2015-03-15T22:30:22.516Z,100886
2015-03-15T22:30:41.203Z,100892
2015-03-15T22:30:59.909Z,100889
2015-03-15T22:31:18.596Z,100884
2015-03-15T22:31:37.268Z,100892
2015-03-15T22:31:55.971Z,100875
2015-03-15T22:32:14.676Z,100887
2015-03-15T22:32:33.364Z,100884
2015-03-15T22:32:52.051Z,100890
2015-03-15T22:33:10.741Z,100892
2015-03-15T22:33:29.444Z,100887
2015-03-15T22:33:48.131Z,100884
2015-03-15T22:34:06.821Z,100884
2015-03-15T22:34:25.508Z,100878
2015-03-15T22:34:44.211Z,100884
2015-03-15T22:35:02.902Z,100887
2015-03-15T22:35:21.574Z,100881
2015-03-15T22:35:40.277Z,100884
2015-03-15T22:35:58.950Z,100881
2015-03-15T22:36:17.637Z,100872
2015-03-15T22:36:36.325Z,100878
2015-03-15T22:36:55.028Z,100875
2015-03-15T22:37:13.734Z,100884
2015-03-15T22:37:32.422Z,100878
2015-03-15T22:37:51.109Z,100887
2015-03-15T22:38:09.800Z,100878
2015-03-15T22:38:28.487Z,100887
2015-03-15T22:38:47.159Z,100890
2015-03-15T22:39:05.864Z,100887
2015-03-15T22:39:24.552Z,100872
2015-03-15T22:39:43.223Z,100884
2015-03-15T22:40:01.913Z,100875
2015-03-15T22:40:20.600Z,100878
2015-03-15T22:40:39.304Z,100875
2015-03-15T22:40:57.993Z,100872
2015-03-15T22:41:16.665Z,100872
2015-03-15T22:41:35.352Z,100875
2015-03-15T22:41:54.056Z,100872
2015-03-15T22:42:12.746Z,100872
2015-03-15T22:42:31.434Z,100866
2015-03-15T22:42:50.121Z,100869
2015-03-15T22:43:08.812Z,100878
2015-03-15T22:43:27.515Z,100872
2015-03-15T22:43:46.202Z,100872
2015-03-15T22:44:04.891Z,100880
2015-03-15T22:44:23.578Z,100869
2015-03-15T22:44:42.266Z,100869
2015-03-15T22:45:00.956Z,100866
2015-03-15T22:45:19.644Z,100866
2015-03-15T22:45:38.347Z,100866
2015-03-15T22:45:57.019Z,100866
2015-03-15T22:46:15.693Z,100869
2015-03-15T22:46:34.396Z,100860
2015-03-15T22:46:53.083Z,100866
2015-03-15T22:47:11.774Z,100866
2015-03-15T22:47:30.446Z,100872
2015-03-15T22:47:49.164Z,100855
2015-03-15T22:48:07.838Z,100863
2015-03-15T22:48:26.541Z,100855
2015-03-15T22:48:45.229Z,100872
2015-03-15T22:49:03.934Z,100866
2015-03-15T22:49:22.621Z,100861
2015-03-15T22:49:41.325Z,100863
2015-03-15T22:50:00.031Z,100861
2015-03-15T22:50:18.718Z,100861
2015-03-15T22:50:37.390Z,100861
2015-03-15T22:50:56.093Z,100869
2015-03-15T22:51:14.783Z,100866
2015-03-15T22:51:33.470Z,100855
2015-03-15T22:51:52.173Z,100858
2015-03-15T22:52:10.878Z,100866
2015-03-15T22:52:29.566Z,100864
2015-03-15T22:52:48.253Z,100866
2015-03-15T22:53:06.960Z,100869
2015-03-15T22:53:25.616Z,100861
2015-03-15T22:53:44.335Z,100864
2015-03-15T22:54:03.024Z,100861
2015-03-15T22:54:21.712Z,100861
2015-03-15T22:54:40.383Z,100858
2015-03-15T22:54:59.071Z,100872
2015-03-15T22:55:17.776Z,100872
2015-03-15T22:55:36.479Z,100866
2015-03-15T22:55:55.151Z,100864
2015-03-15T22:56:13.841Z,100861
2015-03-15T22:56:32.544Z,100869
2015-03-15T22:56:51.200Z,100866
2015-03-15T22:57:09.905Z,100855
2015-03-15T22:57:28.593Z,100869
2015-03-15T22:57:47.296Z,100855
2015-03-15T22:58:06.017Z,100849
2015-03-15T22:58:24.689Z,100863
2015-03-15T22:58:43.377Z,100852
2015-03-15T22:59:02.066Z,100869
2015-03-15T22:59:20.754Z,100864
2015-03-15T22:59:39.457Z,100861
2015-03-15T22:59:58.144Z,100861
2015-03-15T23:00:16.818Z,100849
2015-03-15T23:00:35.537Z,100861
2015-03-15T23:00:54.225Z,100861
2015-03-15T23:01:12.914Z,100861
2015-03-15T23:01:31.602Z,100849
2015-03-15T23:01:50.289Z,100861
2015-03-15T23:02:08.964Z,100858
2015-03-15T23:02:27.667Z,100849
2015-03-15T23:02:46.355Z,100855
2015-03-15T23:03:05.028Z,100849
2015-03-15T23:03:23.732Z,100839
2015-03-15T23:03:42.403Z,100855
2015-03-15T23:04:01.093Z,100858
2015-03-15T23:04:19.796Z,100864
2015-03-15T23:04:38.515Z,100858
2015-03-15T23:04:57.202Z,100855
2015-03-15T23:05:15.892Z,100858
2015-03-15T23:05:34.579Z,100861
2015-03-15T23:05:53.282Z,100861
2015-03-15T23:06:11.973Z,100847
2015-03-15T23:06:30.676Z,100864
2015-03-15T23:06:49.364Z,100852
2015-03-15T23:07:08.038Z,100855
2015-03-15T23:07:26.726Z,100852
2015-03-15T23:07:45.413Z,100858
2015-03-15T23:08:04.119Z,100855
2015-03-15T23:08:22.790Z,100858
2015-03-15T23:08:41.462Z,100855
2015-03-15T23:09:00.165Z,100852
2015-03-15T23:09:18.871Z,100855
2015-03-15T23:09:37.542Z,100858
2015-03-15T23:09:56.246Z,100864
2015-03-15T23:10:14.920Z,100861
2015-03-15T23:10:33.624Z,100858
2015-03-15T23:10:52.311Z,100855
2015-03-15T23:11:11.001Z,100850
2015-03-15T23:11:29.704Z,100861
2015-03-15T23:11:48.422Z,100861
2015-03-15T23:12:07.112Z,100850
2015-03-15T23:12:25.784Z,100855
2015-03-15T23:12:44.487Z,100853
2015-03-15T23:13:03.209Z,100864
2015-03-15T23:13:21.912Z,100850
2015-03-15T23:13:40.599Z,100847
2015-03-15T23:13:59.302Z,100850
2015-03-15T23:14:17.992Z,100855
2015-03-15T23:14:36.695Z,100855
2015-03-15T23:14:55.383Z,100855
2015-03-15T23:15:14.103Z,100861
2015-03-15T23:15:32.775Z,100864
2015-03-15T23:15:51.478Z,100861
2015-03-15T23:16:10.168Z,100858
2015-03-15T23:16:28.871Z,100852
2015-03-15T23:16:47.558Z,100858
2015-03-15T23:17:06.232Z,100852
2015-03-15T23:17:24.935Z,100858
2015-03-15T23:17:43.639Z,100855
2015-03-15T23:18:02.326Z,100852
2015-03-15T23:18:21.017Z,100847
2015-03-15T23:18:39.704Z,100836
2015-03-15T23:18:58.392Z,100858
2015-03-15T23:19:17.098Z,100847
2015-03-15T23:19:35.754Z,100847
2015-03-15T23:19:54.457Z,100855
2015-03-15T23:20:13.146Z,100870
2015-03-15T23:20:31.817Z,100850
2015-03-15T23:20:50.521Z,100852
2015-03-15T23:21:09.195Z,100849
2015-03-15T23:21:27.899Z,100861
2015-03-15T23:21:46.570Z,100858
2015-03-15T23:22:05.261Z,100849
2015-03-15T23:22:23.980Z,100864
2015-03-15T23:22:42.683Z,100847
2015-03-15T23:23:01.370Z,100855
2015-03-15T23:23:20.059Z,100855
2015-03-15T23:23:38.731Z,100847
2015-03-15T23:23:57.434Z,100852
2015-03-15T23:24:16.109Z,100852
2015-03-15T23:24:34.812Z,100849
2015-03-15T23:24:53.499Z,100855
2015-03-15T23:25:12.190Z,100839
2015-03-15T23:25:30.893Z,100850
2015-03-15T23:25:49.580Z,100861
2015-03-15T23:26:08.269Z,100858
2015-03-15T23:26:26.956Z,100852
2015-03-15T23:26:45.628Z,100847
2015-03-15T23:27:04.366Z,100847
2015-03-15T23:27:23.038Z,100844
2015-03-15T23:27:41.725Z,100852
2015-03-15T23:28:00.413Z,100847
2015-03-15T23:28:19.102Z,100850
2015-03-15T23:28:37.774Z,100828
2015-03-15T23:28:56.477Z,100844
2015-03-15T23:29:15.151Z,100847
2015-03-15T23:29:33.823Z,100849
2015-03-15T23:29:52.526Z,100849
2015-03-15T23:30:11.201Z,100847
2015-03-15T23:30:29.888Z,100849
2015-03-15T23:30:48.576Z,100844
2015-03-15T23:31:07.281Z,100849
2015-03-15T23:31:25.953Z,100844
2015-03-15T23:31:44.672Z,100855
2015-03-15T23:32:03.359Z,100849
2015-03-15T23:32:22.049Z,100847
2015-03-15T23:32:40.752Z,100852
2015-03-15T23:32:59.439Z,100852
2015-03-15T23:33:18.114Z,100855
2015-03-15T23:33:36.817Z,100847
2015-03-15T23:33:55.505Z,100847
2015-03-15T23:34:14.210Z,100849
2015-03-15T23:34:32.882Z,100849
2015-03-15T23:34:51.600Z,100852
2015-03-15T23:35:10.290Z,100861
2015-03-15T23:35:28.977Z,100858
2015-03-15T23:35:47.665Z,100849
2015-03-15T23:36:06.370Z,100852
2015-03-15T23:36:25.058Z,100855
2015-03-15T23:36:43.761Z,100849
2015-03-15T23:37:02.479Z,100855
2015-03-15T23:37:21.153Z,100849
2015-03-15T23:37:39.856Z,100852
2015-03-15T23:37:58.560Z,100855
2015-03-15T23:38:17.266Z,100858
2015-03-15T23:38:35.953Z,100849
2015-03-15T23:38:54.641Z,100858
2015-03-15T23:39:13.346Z,100858
2015-03-15T23:39:32.049Z,100855
2015-03-15T23:39:50.721Z,100839
2015-03-15T23:40:09.410Z,100858
2015-03-15T23:40:28.082Z,100855
2015-03-15T23:40:46.801Z,100850
2015-03-15T23:41:05.488Z,100853
2015-03-15T23:41:24.179Z,100864
2015-03-15T23:41:42.226Z,100847
2015-03-15T23:42:00.913Z,100856
2015-03-15T23:42:19.619Z,100856
2015-03-15T23:42:38.307Z,100850
2015-03-15T23:42:56.994Z,100853
2015-03-15T23:43:15.668Z,100844
2015-03-15T23:43:34.356Z,100853
2015-03-15T23:43:53.059Z,100856
2015-03-15T23:44:11.748Z,100856
2015-03-15T23:44:30.467Z,100847
2015-03-15T23:44:49.155Z,100859
2015-03-15T23:45:07.829Z,100853
2015-03-15T23:45:26.516Z,100843
2015-03-15T23:45:45.219Z,100850
2015-03-15T23:46:03.922Z,100856
2015-03-15T23:46:22.612Z,100851
2015-03-15T23:46:41.299Z,100853
2015-03-15T23:47:00.002Z,100856
2015-03-15T23:47:18.693Z,100843
2015-03-15T23:47:37.365Z,100856
2015-03-15T23:47:56.068Z,100845
2015-03-15T23:48:14.742Z,100857
2015-03-15T23:48:33.445Z,100848
2015-03-15T23:48:52.117Z,100843
2015-03-15T23:49:10.807Z,100851
2015-03-15T23:49:29.510Z,100848
2015-03-15T23:49:48.198Z,100854
2015-03-15T23:50:06.919Z,100851
2015-03-15T23:50:25.591Z,100860
2015-03-15T23:50:44.278Z,100845
2015-03-15T23:51:02.966Z,100854
2015-03-15T23:51:21.671Z,100854
2015-03-15T23:51:40.358Z,100857
2015-03-15T23:51:59.046Z,100854
2015-03-15T23:52:17.766Z,100857
2015-03-15T23:52:36.470Z,100851
2015-03-15T23:52:55.157Z,100860
2015-03-15T23:53:13.863Z,100851
2015-03-15T23:53:32.379Z,100851
2015-03-15T23:53:51.082Z,100851
2015-03-15T23:54:09.787Z,100862
2015-03-15T23:54:28.475Z,100848
2015-03-15T23:54:47.162Z,100859
2015-03-15T23:55:05.850Z,100845
2015-03-15T23:55:24.539Z,100856
2015-03-15T23:55:43.242Z,100853
2015-03-15T23:56:01.945Z,100850
2015-03-15T23:56:20.620Z,100856
2015-03-15T23:56:39.339Z,100853
2015-03-15T23:56:57.995Z,100853
2015-03-15T23:57:16.716Z,100853
2015-03-15T23:57:35.419Z,100856
2015-03-15T23:57:54.091Z,100850
2015-03-15T23:58:12.780Z,100853
2015-03-15T23:58:31.484Z,100867
2015-03-15T23:58:50.155Z,100862
2015-03-15T23:59:08.861Z,100862
2015-03-15T23:59:27.532Z,100862
2015-03-15T23:59:46.236Z,100856
